sensor_id;sensor_type;location;lat;lon;timestamp;temperature;humidity
19799;DHT22;10059;59.850;10.454;2023-03-31T00:00:58;0.50;99.90
19799;DHT22;10059;59.850;10.454;2023-03-31T00:03:25;0.50;99.90
19799;DHT22;10059;59.850;10.454;2023-03-31T00:05:57;0.50;99.90
19799;DHT22;10059;59.850;10.454;2023-03-31T00:08:25;0.40;99.90
19799;DHT22;10059;59.850;10.454;2023-03-31T00:10:58;0.40;99.90
19799;DHT22;10059;59.850;10.454;2023-03-31T00:13:26;0.40;99.90
19799;DHT22;10059;59.850;10.454;2023-03-31T00:15:56;0.50;99.90
19799;DHT22;10059;59.850;10.454;2023-03-31T00:18:23;0.40;99.90
19799;DHT22;10059;59.850;10.454;2023-03-31T00:20:51;0.40;99.90
19799;DHT22;10059;59.850;10.454;2023-03-31T00:23:20;0.50;99.90
19799;DHT22;10059;59.850;10.454;2023-03-31T00:25:52;0.50;99.90
19799;DHT22;10059;59.850;10.454;2023-03-31T00:28:19;0.40;99.90
19799;DHT22;10059;59.850;10.454;2023-03-31T00:30:46;0.40;99.90
19799;DHT22;10059;59.850;10.454;2023-03-31T00:33:13;0.40;99.90
19799;DHT22;10059;59.850;10.454;2023-03-31T00:35:40;0.40;99.90
19799;DHT22;10059;59.850;10.454;2023-03-31T00:38:08;0.40;99.90
19799;DHT22;10059;59.850;10.454;2023-03-31T00:40:43;0.40;99.90
19799;DHT22;10059;59.850;10.454;2023-03-31T00:43:23;0.30;99.90
19799;DHT22;10059;59.850;10.454;2023-03-31T00:45:52;0.40;99.90
19799;DHT22;10059;59.850;10.454;2023-03-31T00:48:19;0.30;99.90
19799;DHT22;10059;59.850;10.454;2023-03-31T00:50:51;0.50;99.90
19799;DHT22;10059;59.850;10.454;2023-03-31T00:53:23;0.50;99.90
19799;DHT22;10059;59.850;10.454;2023-03-31T00:55:57;0.40;99.90
19799;DHT22;10059;59.850;10.454;2023-03-31T00:58:25;0.30;99.90
19799;DHT22;10059;59.850;10.454;2023-03-31T01:00:55;0.20;99.90
19799;DHT22;10059;59.850;10.454;2023-03-31T01:03:23;0.20;99.90
19799;DHT22;10059;59.850;10.454;2023-03-31T01:05:53;0.20;99.90
19799;DHT22;10059;59.850;10.454;2023-03-31T01:08:25;0.30;99.90
19799;DHT22;10059;59.850;10.454;2023-03-31T01:10:55;0.20;99.90
19799;DHT22;10059;59.850;10.454;2023-03-31T01:13:23;0.30;99.90
19799;DHT22;10059;59.850;10.454;2023-03-31T01:15:52;0.20;99.90
19799;DHT22;10059;59.850;10.454;2023-03-31T01:18:19;0.30;99.90
19799;DHT22;10059;59.850;10.454;2023-03-31T01:21:10;0.30;99.90
19799;DHT22;10059;59.850;10.454;2023-03-31T01:24:05;0.30;99.90
19799;DHT22;10059;59.850;10.454;2023-03-31T01:26:56;0.30;99.90
19799;DHT22;10059;59.850;10.454;2023-03-31T01:29:50;0.30;99.90
19799;DHT22;10059;59.850;10.454;2023-03-31T01:32:56;0.20;99.90
19799;DHT22;10059;59.850;10.454;2023-03-31T01:35:55;0.20;99.90
19799;DHT22;10059;59.850;10.454;2023-03-31T01:38:43;0.30;99.90
19799;DHT22;10059;59.850;10.454;2023-03-31T01:41:29;0.20;99.90
19799;DHT22;10059;59.850;10.454;2023-03-31T01:44:06;0.20;99.90
19799;DHT22;10059;59.850;10.454;2023-03-31T01:46:36;0.20;99.90
19799;DHT22;10059;59.850;10.454;2023-03-31T01:49:14;0.30;99.90
19799;DHT22;10059;59.850;10.454;2023-03-31T01:51:48;0.30;99.90
19799;DHT22;10059;59.850;10.454;2023-03-31T01:54:19;0.30;99.90
19799;DHT22;10059;59.850;10.454;2023-03-31T01:56:51;0.30;99.90
19799;DHT22;10059;59.850;10.454;2023-03-31T01:59:23;0.30;99.90
19799;DHT22;10059;59.850;10.454;2023-03-31T02:01:56;0.30;99.90
19799;DHT22;10059;59.850;10.454;2023-03-31T02:04:27;0.30;99.90
19799;DHT22;10059;59.850;10.454;2023-03-31T02:06:58;0.30;99.90
19799;DHT22;10059;59.850;10.454;2023-03-31T02:09:30;0.20;99.90
19799;DHT22;10059;59.850;10.454;2023-03-31T02:12:04;0.20;99.90
19799;DHT22;10059;59.850;10.454;2023-03-31T02:14:32;0.20;99.90
19799;DHT22;10059;59.850;10.454;2023-03-31T02:17:01;0.10;99.90
19799;DHT22;10059;59.850;10.454;2023-03-31T02:19:32;0.20;99.90
19799;DHT22;10059;59.850;10.454;2023-03-31T02:22:00;0.00;99.90
19799;DHT22;10059;59.850;10.454;2023-03-31T02:24:30;0.10;99.90
19799;DHT22;10059;59.850;10.454;2023-03-31T02:27:05;0.20;99.90
19799;DHT22;10059;59.850;10.454;2023-03-31T02:29:35;0.10;99.90
19799;DHT22;10059;59.850;10.454;2023-03-31T02:32:09;0.20;99.90
19799;DHT22;10059;59.850;10.454;2023-03-31T02:34:38;0.10;99.90
19799;DHT22;10059;59.850;10.454;2023-03-31T02:37:05;0.10;99.90
19799;DHT22;10059;59.850;10.454;2023-03-31T02:39:34;0.20;99.90
19799;DHT22;10059;59.850;10.454;2023-03-31T02:42:03;0.20;99.90
19799;DHT22;10059;59.850;10.454;2023-03-31T02:44:32;0.20;99.90
19799;DHT22;10059;59.850;10.454;2023-03-31T02:46:59;0.30;99.90
19799;DHT22;10059;59.850;10.454;2023-03-31T02:49:26;0.20;99.90
19799;DHT22;10059;59.850;10.454;2023-03-31T02:52:17;0.30;99.90
19799;DHT22;10059;59.850;10.454;2023-03-31T03:00:54;0.30;99.90
19799;DHT22;10059;59.850;10.454;2023-03-31T03:03:32;0.40;99.90
19799;DHT22;10059;59.850;10.454;2023-03-31T03:06:07;0.20;99.90
19799;DHT22;10059;59.850;10.454;2023-03-31T03:08:57;0.30;99.90
19799;DHT22;10059;59.850;10.454;2023-03-31T03:11:32;0.20;99.90
19799;DHT22;10059;59.850;10.454;2023-03-31T03:14:06;0.20;99.90
19799;DHT22;10059;59.850;10.454;2023-03-31T03:16:39;0.30;99.90
19799;DHT22;10059;59.850;10.454;2023-03-31T03:19:07;0.40;99.90
19799;DHT22;10059;59.850;10.454;2023-03-31T03:21:34;0.30;99.90
19799;DHT22;10059;59.850;10.454;2023-03-31T03:24:01;0.30;99.90
19799;DHT22;10059;59.850;10.454;2023-03-31T03:26:28;0.20;99.90
19799;DHT22;10059;59.850;10.454;2023-03-31T03:28:55;0.20;99.90
19799;DHT22;10059;59.850;10.454;2023-03-31T03:31:24;0.20;99.90
19799;DHT22;10059;59.850;10.454;2023-03-31T03:33:51;0.20;99.90
19799;DHT22;10059;59.850;10.454;2023-03-31T03:36:18;0.10;99.90
19799;DHT22;10059;59.850;10.454;2023-03-31T03:38:45;0.20;99.90
19799;DHT22;10059;59.850;10.454;2023-03-31T03:41:12;0.20;99.90
19799;DHT22;10059;59.850;10.454;2023-03-31T03:43:39;0.30;99.90
19799;DHT22;10059;59.850;10.454;2023-03-31T03:46:05;0.30;99.90
19799;DHT22;10059;59.850;10.454;2023-03-31T03:48:34;0.30;99.90
19799;DHT22;10059;59.850;10.454;2023-03-31T03:51:00;0.30;99.90
19799;DHT22;10059;59.850;10.454;2023-03-31T03:53:28;0.40;99.90
19799;DHT22;10059;59.850;10.454;2023-03-31T03:55:54;0.30;99.90
19799;DHT22;10059;59.850;10.454;2023-03-31T03:58:23;0.30;99.90
19799;DHT22;10059;59.850;10.454;2023-03-31T04:00:50;0.30;99.90
19799;DHT22;10059;59.850;10.454;2023-03-31T04:03:17;0.30;99.90
19799;DHT22;10059;59.850;10.454;2023-03-31T04:05:46;0.20;99.90
19799;DHT22;10059;59.850;10.454;2023-03-31T04:08:14;0.20;99.90
19799;DHT22;10059;59.850;10.454;2023-03-31T04:10:43;0.30;99.90
19799;DHT22;10059;59.850;10.454;2023-03-31T04:13:10;0.30;99.90
19799;DHT22;10059;59.850;10.454;2023-03-31T04:15:36;0.40;99.90
19799;DHT22;10059;59.850;10.454;2023-03-31T04:18:03;0.40;99.90
19799;DHT22;10059;59.850;10.454;2023-03-31T04:20:30;0.50;99.90
19799;DHT22;10059;59.850;10.454;2023-03-31T04:22:58;0.50;99.90
19799;DHT22;10059;59.850;10.454;2023-03-31T04:25:27;0.50;99.90
19799;DHT22;10059;59.850;10.454;2023-03-31T04:27:55;0.50;99.90
19799;DHT22;10059;59.850;10.454;2023-03-31T04:30:23;0.50;99.90
19799;DHT22;10059;59.850;10.454;2023-03-31T04:32:57;0.40;99.90
19799;DHT22;10059;59.850;10.454;2023-03-31T04:35:26;0.30;99.90
19799;DHT22;10059;59.850;10.454;2023-03-31T04:38:04;0.30;99.90
19799;DHT22;10059;59.850;10.454;2023-03-31T04:40:31;0.30;99.90
19799;DHT22;10059;59.850;10.454;2023-03-31T04:42:59;0.30;99.90
19799;DHT22;10059;59.850;10.454;2023-03-31T04:45:26;0.40;99.90
19799;DHT22;10059;59.850;10.454;2023-03-31T04:47:53;0.30;99.90
19799;DHT22;10059;59.850;10.454;2023-03-31T04:50:20;0.30;99.90
19799;DHT22;10059;59.850;10.454;2023-03-31T04:52:47;0.40;99.90
19799;DHT22;10059;59.850;10.454;2023-03-31T04:55:15;0.40;99.90
19799;DHT22;10059;59.850;10.454;2023-03-31T04:57:42;0.20;99.90
19799;DHT22;10059;59.850;10.454;2023-03-31T05:00:10;0.20;99.90
19799;DHT22;10059;59.850;10.454;2023-03-31T05:02:37;0.30;99.90
19799;DHT22;10059;59.850;10.454;2023-03-31T05:05:04;0.20;99.90
19799;DHT22;10059;59.850;10.454;2023-03-31T05:07:31;0.30;99.90
19799;DHT22;10059;59.850;10.454;2023-03-31T05:09:58;0.40;99.90
19799;DHT22;10059;59.850;10.454;2023-03-31T05:12:26;0.40;99.90
19799;DHT22;10059;59.850;10.454;2023-03-31T05:14:53;0.40;99.90
19799;DHT22;10059;59.850;10.454;2023-03-31T05:17:20;0.40;99.90
19799;DHT22;10059;59.850;10.454;2023-03-31T05:19:46;0.40;99.90
19799;DHT22;10059;59.850;10.454;2023-03-31T05:22:14;0.50;99.90
19799;DHT22;10059;59.850;10.454;2023-03-31T05:24:45;0.40;99.90
19799;DHT22;10059;59.850;10.454;2023-03-31T05:27:12;0.50;99.90
19799;DHT22;10059;59.850;10.454;2023-03-31T05:29:40;0.50;99.90
19799;DHT22;10059;59.850;10.454;2023-03-31T05:32:07;0.60;99.90
19799;DHT22;10059;59.850;10.454;2023-03-31T05:34:33;0.60;99.90
19799;DHT22;10059;59.850;10.454;2023-03-31T05:37:01;0.70;99.90
19799;DHT22;10059;59.850;10.454;2023-03-31T05:39:27;0.70;99.90
19799;DHT22;10059;59.850;10.454;2023-03-31T05:41:57;0.60;99.90
19799;DHT22;10059;59.850;10.454;2023-03-31T05:44:24;0.50;99.90
19799;DHT22;10059;59.850;10.454;2023-03-31T05:46:53;0.60;99.90
19799;DHT22;10059;59.850;10.454;2023-03-31T05:49:19;0.60;99.90
19799;DHT22;10059;59.850;10.454;2023-03-31T05:51:46;0.80;99.90
19799;DHT22;10059;59.850;10.454;2023-03-31T05:54:14;0.90;99.90
19799;DHT22;10059;59.850;10.454;2023-03-31T05:56:40;1.00;99.90
19799;DHT22;10059;59.850;10.454;2023-03-31T05:59:07;1.10;99.90
19799;DHT22;10059;59.850;10.454;2023-03-31T06:01:34;1.20;99.90
19799;DHT22;10059;59.850;10.454;2023-03-31T06:04:02;1.40;99.90
19799;DHT22;10059;59.850;10.454;2023-03-31T06:06:29;1.70;99.90
19799;DHT22;10059;59.850;10.454;2023-03-31T06:08:57;2.10;99.90
19799;DHT22;10059;59.850;10.454;2023-03-31T06:11:24;2.10;99.90
19799;DHT22;10059;59.850;10.454;2023-03-31T06:13:51;2.20;99.90
19799;DHT22;10059;59.850;10.454;2023-03-31T06:16:18;2.30;99.90
19799;DHT22;10059;59.850;10.454;2023-03-31T06:18:45;2.40;99.90
19799;DHT22;10059;59.850;10.454;2023-03-31T06:21:15;2.10;99.90
19799;DHT22;10059;59.850;10.454;2023-03-31T06:23:42;2.10;99.90
19799;DHT22;10059;59.850;10.454;2023-03-31T06:26:11;2.00;99.90
19799;DHT22;10059;59.850;10.454;2023-03-31T06:28:38;1.90;99.90
19799;DHT22;10059;59.850;10.454;2023-03-31T06:31:07;1.90;99.90
19799;DHT22;10059;59.850;10.454;2023-03-31T06:33:37;1.90;99.90
19799;DHT22;10059;59.850;10.454;2023-03-31T06:36:05;2.00;99.90
19799;DHT22;10059;59.850;10.454;2023-03-31T06:38:34;1.80;99.90
19799;DHT22;10059;59.850;10.454;2023-03-31T06:41:03;1.70;99.90
19799;DHT22;10059;59.850;10.454;2023-03-31T06:43:30;1.80;99.90
19799;DHT22;10059;59.850;10.454;2023-03-31T06:45:57;1.60;99.90
19799;DHT22;10059;59.850;10.454;2023-03-31T06:48:24;1.40;99.90
19799;DHT22;10059;59.850;10.454;2023-03-31T06:50:52;1.50;99.90
19799;DHT22;10059;59.850;10.454;2023-03-31T06:53:19;1.40;99.90
19799;DHT22;10059;59.850;10.454;2023-03-31T06:55:48;1.50;99.90
19799;DHT22;10059;59.850;10.454;2023-03-31T06:58:15;1.50;99.90
19799;DHT22;10059;59.850;10.454;2023-03-31T07:00:42;1.60;99.90
19799;DHT22;10059;59.850;10.454;2023-03-31T07:03:10;1.90;99.90
19799;DHT22;10059;59.850;10.454;2023-03-31T07:05:37;2.00;99.90
19799;DHT22;10059;59.850;10.454;2023-03-31T07:08:05;2.00;99.90
19799;DHT22;10059;59.850;10.454;2023-03-31T07:10:32;2.10;99.90
19799;DHT22;10059;59.850;10.454;2023-03-31T07:13:00;2.20;99.90
19799;DHT22;10059;59.850;10.454;2023-03-31T07:15:27;2.20;99.90
19799;DHT22;10059;59.850;10.454;2023-03-31T07:17:55;2.40;99.90
19799;DHT22;10059;59.850;10.454;2023-03-31T07:20:26;2.50;99.90
19799;DHT22;10059;59.850;10.454;2023-03-31T07:22:53;2.50;99.90
19799;DHT22;10059;59.850;10.454;2023-03-31T07:25:20;2.50;99.90
19799;DHT22;10059;59.850;10.454;2023-03-31T07:27:47;2.50;99.90
19799;DHT22;10059;59.850;10.454;2023-03-31T07:30:17;2.40;99.90
19799;DHT22;10059;59.850;10.454;2023-03-31T07:32:46;2.10;99.90
19799;DHT22;10059;59.850;10.454;2023-03-31T07:35:13;2.00;99.90
19799;DHT22;10059;59.850;10.454;2023-03-31T07:37:42;2.20;99.90
19799;DHT22;10059;59.850;10.454;2023-03-31T07:40:11;2.40;99.90
19799;DHT22;10059;59.850;10.454;2023-03-31T07:42:40;2.60;99.90
19799;DHT22;10059;59.850;10.454;2023-03-31T07:45:08;2.80;99.90
19799;DHT22;10059;59.850;10.454;2023-03-31T07:47:36;3.40;99.90
19799;DHT22;10059;59.850;10.454;2023-03-31T07:50:05;3.40;99.90
19799;DHT22;10059;59.850;10.454;2023-03-31T07:52:32;3.50;99.90
19799;DHT22;10059;59.850;10.454;2023-03-31T07:54:59;3.60;99.90
19799;DHT22;10059;59.850;10.454;2023-03-31T07:57:26;3.20;99.90
19799;DHT22;10059;59.850;10.454;2023-03-31T07:59:53;3.20;99.90
19799;DHT22;10059;59.850;10.454;2023-03-31T08:02:20;2.80;99.90
19799;DHT22;10059;59.850;10.454;2023-03-31T08:04:48;2.70;99.90
19799;DHT22;10059;59.850;10.454;2023-03-31T08:07:15;2.90;99.90
19799;DHT22;10059;59.850;10.454;2023-03-31T08:09:44;2.80;99.90
19799;DHT22;10059;59.850;10.454;2023-03-31T08:12:11;2.80;99.90
19799;DHT22;10059;59.850;10.454;2023-03-31T08:14:38;2.80;99.90
19799;DHT22;10059;59.850;10.454;2023-03-31T08:17:05;2.70;99.90
19799;DHT22;10059;59.850;10.454;2023-03-31T08:19:31;2.70;99.90
19799;DHT22;10059;59.850;10.454;2023-03-31T08:22:00;2.80;99.90
19799;DHT22;10059;59.850;10.454;2023-03-31T08:24:26;3.00;99.90
19799;DHT22;10059;59.850;10.454;2023-03-31T08:26:53;2.90;99.90
19799;DHT22;10059;59.850;10.454;2023-03-31T08:29:20;2.60;99.90
19799;DHT22;10059;59.850;10.454;2023-03-31T08:31:47;2.70;99.90
19799;DHT22;10059;59.850;10.454;2023-03-31T08:34:14;2.70;99.90
19799;DHT22;10059;59.850;10.454;2023-03-31T08:36:40;2.90;99.90
19799;DHT22;10059;59.850;10.454;2023-03-31T08:39:09;3.00;99.90
19799;DHT22;10059;59.850;10.454;2023-03-31T08:41:45;3.10;99.90
19799;DHT22;10059;59.850;10.454;2023-03-31T08:44:15;3.00;99.90
19799;DHT22;10059;59.850;10.454;2023-03-31T08:46:45;3.10;99.90
19799;DHT22;10059;59.850;10.454;2023-03-31T08:49:15;3.20;99.90
19799;DHT22;10059;59.850;10.454;2023-03-31T08:51:47;3.50;99.90
19799;DHT22;10059;59.850;10.454;2023-03-31T08:54:20;3.70;99.90
19799;DHT22;10059;59.850;10.454;2023-03-31T08:56:51;3.40;99.90
19799;DHT22;10059;59.850;10.454;2023-03-31T08:59:26;3.40;99.90
19799;DHT22;10059;59.850;10.454;2023-03-31T09:01:59;3.80;99.90
19799;DHT22;10059;59.850;10.454;2023-03-31T09:04:55;3.90;99.90
19799;DHT22;10059;59.850;10.454;2023-03-31T09:07:31;3.70;99.90
19799;DHT22;10059;59.850;10.454;2023-03-31T09:10:17;3.70;99.90
19799;DHT22;10059;59.850;10.454;2023-03-31T09:12:54;4.00;99.90
19799;DHT22;10059;59.850;10.454;2023-03-31T09:15:25;4.10;99.90
19799;DHT22;10059;59.850;10.454;2023-03-31T09:17:55;4.10;99.90
19799;DHT22;10059;59.850;10.454;2023-03-31T09:20:29;4.00;99.90
19799;DHT22;10059;59.850;10.454;2023-03-31T09:23:00;3.90;99.90
19799;DHT22;10059;59.850;10.454;2023-03-31T09:25:34;3.80;99.90
19799;DHT22;10059;59.850;10.454;2023-03-31T09:28:03;3.90;99.90
19799;DHT22;10059;59.850;10.454;2023-03-31T09:30:35;3.80;99.90
19799;DHT22;10059;59.850;10.454;2023-03-31T09:33:10;3.60;99.90
19799;DHT22;10059;59.850;10.454;2023-03-31T09:35:38;3.90;99.90
19799;DHT22;10059;59.850;10.454;2023-03-31T09:38:05;4.20;99.90
19799;DHT22;10059;59.850;10.454;2023-03-31T09:40:33;4.70;99.90
19799;DHT22;10059;59.850;10.454;2023-03-31T09:43:03;4.80;99.90
19799;DHT22;10059;59.850;10.454;2023-03-31T09:45:30;4.80;99.90
19799;DHT22;10059;59.850;10.454;2023-03-31T09:48:01;4.90;99.90
19799;DHT22;10059;59.850;10.454;2023-03-31T09:50:32;4.90;99.90
19799;DHT22;10059;59.850;10.454;2023-03-31T09:53:04;5.00;99.90
19799;DHT22;10059;59.850;10.454;2023-03-31T09:55:40;5.20;99.90
19799;DHT22;10059;59.850;10.454;2023-03-31T09:58:12;5.40;99.90
19799;DHT22;10059;59.850;10.454;2023-03-31T10:00:40;4.90;99.90
19799;DHT22;10059;59.850;10.454;2023-03-31T10:03:11;4.90;99.90
19799;DHT22;10059;59.850;10.454;2023-03-31T10:05:47;5.00;99.90
19799;DHT22;10059;59.850;10.454;2023-03-31T10:08:30;4.90;99.90
19799;DHT22;10059;59.850;10.454;2023-03-31T10:11:07;5.00;99.90
19799;DHT22;10059;59.850;10.454;2023-03-31T10:13:41;4.70;99.90
19799;DHT22;10059;59.850;10.454;2023-03-31T10:16:13;4.70;99.90
19799;DHT22;10059;59.850;10.454;2023-03-31T10:18:42;4.80;99.90
19799;DHT22;10059;59.850;10.454;2023-03-31T10:21:19;4.70;99.90
19799;DHT22;10059;59.850;10.454;2023-03-31T10:23:47;5.00;99.90
19799;DHT22;10059;59.850;10.454;2023-03-31T10:26:17;5.30;99.90
19799;DHT22;10059;59.850;10.454;2023-03-31T10:28:47;5.00;99.90
19799;DHT22;10059;59.850;10.454;2023-03-31T10:31:17;5.10;99.90
19799;DHT22;10059;59.850;10.454;2023-03-31T10:33:47;5.50;99.90
19799;DHT22;10059;59.850;10.454;2023-03-31T10:36:20;5.70;99.90
19799;DHT22;10059;59.850;10.454;2023-03-31T10:38:49;6.60;99.90
19799;DHT22;10059;59.850;10.454;2023-03-31T10:41:20;6.70;99.90
19799;DHT22;10059;59.850;10.454;2023-03-31T10:43:49;7.50;99.90
19799;DHT22;10059;59.850;10.454;2023-03-31T10:46:17;8.50;99.90
19799;DHT22;10059;59.850;10.454;2023-03-31T10:48:44;9.20;99.90
19799;DHT22;10059;59.850;10.454;2023-03-31T10:51:15;9.30;98.50
19799;DHT22;10059;59.850;10.454;2023-03-31T10:53:46;8.60;96.30
19799;DHT22;10059;59.850;10.454;2023-03-31T10:56:29;8.70;97.40
19799;DHT22;10059;59.850;10.454;2023-03-31T10:59:20;8.60;96.20
19799;DHT22;10059;59.850;10.454;2023-03-31T11:02:00;8.30;96.90
19799;DHT22;10059;59.850;10.454;2023-03-31T11:07:30;8.80;95.50
19799;DHT22;10059;59.850;10.454;2023-03-31T11:10:19;8.50;95.50
19799;DHT22;10059;59.850;10.454;2023-03-31T11:12:52;9.20;96.90
19799;DHT22;10059;59.850;10.454;2023-03-31T11:15:28;10.00;96.30
19799;DHT22;10059;59.850;10.454;2023-03-31T11:18:05;10.40;94.40
19799;DHT22;10059;59.850;10.454;2023-03-31T11:20:39;10.10;93.40
19799;DHT22;10059;59.850;10.454;2023-03-31T11:23:15;10.70;94.00
19799;DHT22;10059;59.850;10.454;2023-03-31T11:25:49;9.20;92.10
19799;DHT22;10059;59.850;10.454;2023-03-31T11:28:25;9.30;93.60
19799;DHT22;10059;59.850;10.454;2023-03-31T11:31:02;9.70;92.70
19799;DHT22;10059;59.850;10.454;2023-03-31T11:33:46;10.00;93.20
19799;DHT22;10059;59.850;10.454;2023-03-31T11:36:26;10.50;92.00
19799;DHT22;10059;59.850;10.454;2023-03-31T11:39:07;9.70;91.40
19799;DHT22;10059;59.850;10.454;2023-03-31T11:41:38;9.20;91.80
19799;DHT22;10059;59.850;10.454;2023-03-31T11:44:11;10.10;92.00
19799;DHT22;10059;59.850;10.454;2023-03-31T11:46:41;9.70;92.10
19799;DHT22;10059;59.850;10.454;2023-03-31T11:49:15;8.90;91.40
19799;DHT22;10059;59.850;10.454;2023-03-31T11:51:47;8.30;91.60
19799;DHT22;10059;59.850;10.454;2023-03-31T11:54:22;9.10;92.70
19799;DHT22;10059;59.850;10.454;2023-03-31T11:56:51;10.00;92.60
19799;DHT22;10059;59.850;10.454;2023-03-31T11:59:21;9.20;90.40
19799;DHT22;10059;59.850;10.454;2023-03-31T12:01:57;9.30;91.70
19799;DHT22;10059;59.850;10.454;2023-03-31T12:04:32;9.20;91.10
19799;DHT22;10059;59.850;10.454;2023-03-31T12:07:03;8.90;91.80
19799;DHT22;10059;59.850;10.454;2023-03-31T12:09:38;10.40;93.20
19799;DHT22;10059;59.850;10.454;2023-03-31T12:12:13;10.80;91.20
19799;DHT22;10059;59.850;10.454;2023-03-31T12:14:47;11.10;89.00
19799;DHT22;10059;59.850;10.454;2023-03-31T12:17:15;10.20;91.20
19799;DHT22;10059;59.850;10.454;2023-03-31T12:19:46;10.10;89.60
19799;DHT22;10059;59.850;10.454;2023-03-31T12:22:17;10.50;90.50
19799;DHT22;10059;59.850;10.454;2023-03-31T12:24:45;10.20;89.50
19799;DHT22;10059;59.850;10.454;2023-03-31T12:27:15;10.20;88.10
19799;DHT22;10059;59.850;10.454;2023-03-31T12:29:49;10.50;88.50
19799;DHT22;10059;59.850;10.454;2023-03-31T12:32:20;10.30;91.00
19799;DHT22;10059;59.850;10.454;2023-03-31T12:34:53;10.20;90.40
19799;DHT22;10059;59.850;10.454;2023-03-31T12:40:40;10.60;88.30
19799;DHT22;10059;59.850;10.454;2023-03-31T12:43:27;10.20;87.10
19799;DHT22;10059;59.850;10.454;2023-03-31T12:46:11;9.40;88.80
19799;DHT22;10059;59.850;10.454;2023-03-31T12:51:52;10.30;86.20
19799;DHT22;10059;59.850;10.454;2023-03-31T12:54:34;9.70;86.30
19799;DHT22;10059;59.850;10.454;2023-03-31T12:57:06;9.90;86.10
19799;DHT22;10059;59.850;10.454;2023-03-31T12:59:38;10.70;89.30
19799;DHT22;10059;59.850;10.454;2023-03-31T13:02:22;10.60;89.90
19799;DHT22;10059;59.850;10.454;2023-03-31T13:04:49;10.50;90.10
19799;DHT22;10059;59.850;10.454;2023-03-31T13:07:38;9.90;87.80
19799;DHT22;10059;59.850;10.454;2023-03-31T13:10:26;9.50;90.70
19799;DHT22;10059;59.850;10.454;2023-03-31T13:13:01;9.10;86.90
19799;DHT22;10059;59.850;10.454;2023-03-31T13:15:29;8.50;86.30
19799;DHT22;10059;59.850;10.454;2023-03-31T13:17:59;8.60;87.60
19799;DHT22;10059;59.850;10.454;2023-03-31T13:20:31;8.60;87.80
19799;DHT22;10059;59.850;10.454;2023-03-31T13:23:03;9.10;87.30
19799;DHT22;10059;59.850;10.454;2023-03-31T13:25:49;9.10;86.30
19799;DHT22;10059;59.850;10.454;2023-03-31T13:28:27;8.70;89.50
19799;DHT22;10059;59.850;10.454;2023-03-31T13:30:58;8.70;86.80
19799;DHT22;10059;59.850;10.454;2023-03-31T13:33:31;8.50;89.50
19799;DHT22;10059;59.850;10.454;2023-03-31T13:36:29;8.50;87.60
19799;DHT22;10059;59.850;10.454;2023-03-31T13:39:32;8.90;86.70
19799;DHT22;10059;59.850;10.454;2023-03-31T13:42:18;8.90;85.60
19799;DHT22;10059;59.850;10.454;2023-03-31T13:45:02;9.30;86.60
19799;DHT22;10059;59.850;10.454;2023-03-31T13:48:00;9.70;86.80
19799;DHT22;10059;59.850;10.454;2023-03-31T13:50:46;9.50;83.90
19799;DHT22;10059;59.850;10.454;2023-03-31T13:53:35;9.00;83.50
19799;DHT22;10059;59.850;10.454;2023-03-31T13:56:19;8.80;86.80
19799;DHT22;10059;59.850;10.454;2023-03-31T13:59:21;8.60;84.70
19799;DHT22;10059;59.850;10.454;2023-03-31T14:02:17;8.40;83.90
19799;DHT22;10059;59.850;10.454;2023-03-31T14:07:57;8.10;86.50
19799;DHT22;10059;59.850;10.454;2023-03-31T14:10:28;8.20;87.80
19799;DHT22;10059;59.850;10.454;2023-03-31T14:13:10;7.80;85.00
19799;DHT22;10059;59.850;10.454;2023-03-31T14:15:40;7.40;85.50
19799;DHT22;10059;59.850;10.454;2023-03-31T14:18:09;7.30;86.00
19799;DHT22;10059;59.850;10.454;2023-03-31T14:20:48;7.10;86.10
19799;DHT22;10059;59.850;10.454;2023-03-31T14:23:36;7.10;85.70
19799;DHT22;10059;59.850;10.454;2023-03-31T14:26:09;7.30;86.80
19799;DHT22;10059;59.850;10.454;2023-03-31T14:28:55;7.40;87.90
19799;DHT22;10059;59.850;10.454;2023-03-31T14:31:28;7.40;86.30
19799;DHT22;10059;59.850;10.454;2023-03-31T14:34:24;7.50;84.90
19799;DHT22;10059;59.850;10.454;2023-03-31T14:36:57;7.70;84.60
19799;DHT22;10059;59.850;10.454;2023-03-31T14:39:29;7.50;83.70
19799;DHT22;10059;59.850;10.454;2023-03-31T14:42:01;7.50;84.40
19799;DHT22;10059;59.850;10.454;2023-03-31T14:44:28;7.80;86.20
19799;DHT22;10059;59.850;10.454;2023-03-31T14:46:56;8.30;84.10
19799;DHT22;10059;59.850;10.454;2023-03-31T14:49:25;8.40;84.80
19799;DHT22;10059;59.850;10.454;2023-03-31T14:51:54;8.10;82.30
19799;DHT22;10059;59.850;10.454;2023-03-31T14:54:21;8.10;83.50
19799;DHT22;10059;59.850;10.454;2023-03-31T14:56:51;8.00;82.50
19799;DHT22;10059;59.850;10.454;2023-03-31T14:59:21;8.00;83.50
19799;DHT22;10059;59.850;10.454;2023-03-31T15:01:50;7.90;83.20
19799;DHT22;10059;59.850;10.454;2023-03-31T15:04:20;7.60;83.20
19799;DHT22;10059;59.850;10.454;2023-03-31T15:06:49;7.30;82.70
19799;DHT22;10059;59.850;10.454;2023-03-31T15:09:19;7.40;85.90
19799;DHT22;10059;59.850;10.454;2023-03-31T15:11:52;7.30;82.60
19799;DHT22;10059;59.850;10.454;2023-03-31T15:14:20;7.30;82.60
19799;DHT22;10059;59.850;10.454;2023-03-31T15:16:49;7.40;82.50
19799;DHT22;10059;59.850;10.454;2023-03-31T15:19:18;7.50;82.10
19799;DHT22;10059;59.850;10.454;2023-03-31T15:21:52;7.60;81.40
19799;DHT22;10059;59.850;10.454;2023-03-31T15:24:20;7.80;83.00
19799;DHT22;10059;59.850;10.454;2023-03-31T15:26:53;8.00;82.10
19799;DHT22;10059;59.850;10.454;2023-03-31T15:29:24;8.00;82.50
19799;DHT22;10059;59.850;10.454;2023-03-31T15:31:55;7.90;82.90
19799;DHT22;10059;59.850;10.454;2023-03-31T15:34:25;7.70;82.60
19799;DHT22;10059;59.850;10.454;2023-03-31T15:36:53;7.90;82.70
19799;DHT22;10059;59.850;10.454;2023-03-31T15:39:21;7.80;81.30
19799;DHT22;10059;59.850;10.454;2023-03-31T15:41:49;7.70;82.40
19799;DHT22;10059;59.850;10.454;2023-03-31T15:44:35;7.80;83.60
19799;DHT22;10059;59.850;10.454;2023-03-31T15:47:07;7.90;84.00
19799;DHT22;10059;59.850;10.454;2023-03-31T15:49:49;7.80;79.10
19799;DHT22;10059;59.850;10.454;2023-03-31T15:52:21;7.70;81.10
19799;DHT22;10059;59.850;10.454;2023-03-31T15:54:50;7.30;77.70
19799;DHT22;10059;59.850;10.454;2023-03-31T15:57:17;7.40;79.90
19799;DHT22;10059;59.850;10.454;2023-03-31T15:59:49;7.20;79.90
19799;DHT22;10059;59.850;10.454;2023-03-31T16:02:18;7.20;82.20
19799;DHT22;10059;59.850;10.454;2023-03-31T16:04:47;7.10;79.90
19799;DHT22;10059;59.850;10.454;2023-03-31T16:07:18;7.00;80.30
19799;DHT22;10059;59.850;10.454;2023-03-31T16:09:49;7.10;81.20
19799;DHT22;10059;59.850;10.454;2023-03-31T16:12:21;7.20;80.70
19799;DHT22;10059;59.850;10.454;2023-03-31T16:14:54;6.90;80.10
19799;DHT22;10059;59.850;10.454;2023-03-31T16:17:28;6.90;80.50